createdAt,value
2023-03-06T00:00:47.810Z,21.05
2023-03-06T00:01:47.819Z,21.05
2023-03-06T00:02:47.836Z,21.05
2023-03-06T00:05:47.877Z,21.05
2023-03-06T00:06:47.854Z,21.04
2023-03-06T00:07:47.853Z,21.04
2023-03-06T00:08:47.859Z,21.04
2023-03-06T00:09:47.857Z,21.04
2023-03-06T00:10:47.881Z,21.04
2023-03-06T00:11:47.866Z,21.03
2023-03-06T00:12:47.871Z,21.04
2023-03-06T00:13:47.867Z,21.04
2023-03-06T00:14:47.876Z,21.03
2023-03-06T00:15:47.937Z,21.03
2023-03-06T00:16:47.892Z,21.03
2023-03-06T00:17:47.883Z,21.03
2023-03-06T00:18:47.898Z,21.03
2023-03-06T00:19:47.914Z,21.03
2023-03-06T00:20:47.905Z,21.03
2023-03-06T00:21:47.902Z,21.03
2023-03-06T00:22:47.923Z,21.02
2023-03-06T00:23:47.924Z,21.02
2023-03-06T00:24:47.924Z,21.02
2023-03-06T00:25:47.929Z,21.02
2023-03-06T00:26:47.931Z,21.02
2023-03-06T00:27:47.940Z,21.02
2023-03-06T00:28:47.949Z,21.01
2023-03-06T00:29:47.958Z,21.01
2023-03-06T00:30:47.974Z,21.01
2023-03-06T00:31:48.050Z,21.01
2023-03-06T00:32:47.992Z,21.01
2023-03-06T00:33:47.989Z,21.01
2023-03-06T00:34:48.003Z,21.01
2023-03-06T00:35:48.036Z,21.00
2023-03-06T00:36:48.021Z,21.00
2023-03-06T00:37:48.022Z,21.01
2023-03-06T00:38:48.031Z,21.00
2023-03-06T00:39:48.042Z,21.00
2023-03-06T00:40:48.053Z,21.00
2023-03-06T00:41:48.071Z,21.00
2023-03-06T00:42:48.094Z,21.00
2023-03-06T00:43:48.256Z,20.99
2023-03-06T00:44:48.202Z,20.99
2023-03-06T00:45:48.172Z,21.00
2023-03-06T00:46:48.134Z,20.98
2023-03-06T00:47:48.158Z,21.00
2023-03-06T00:48:48.163Z,20.99
2023-03-06T00:49:48.172Z,20.98
2023-03-06T00:50:48.186Z,20.98
2023-03-06T00:51:48.194Z,20.98
2023-03-06T00:52:48.223Z,20.98
2023-03-06T00:53:48.224Z,20.98
2023-03-06T00:54:48.229Z,20.98
2023-03-06T00:55:48.239Z,20.97
2023-03-06T00:56:48.250Z,20.98
2023-03-06T00:57:48.275Z,20.97
2023-03-06T00:58:48.284Z,20.97
2023-03-06T00:59:48.296Z,20.97
2023-03-06T01:00:48.345Z,20.97
2023-03-06T01:01:48.388Z,20.97
2023-03-06T01:02:48.339Z,20.97
2023-03-06T01:03:48.342Z,20.96
2023-03-06T01:04:48.353Z,20.96
2023-03-06T01:05:48.761Z,20.96
2023-03-06T01:06:48.431Z,20.96
2023-03-06T01:07:48.386Z,20.96
2023-03-06T01:08:48.403Z,20.96
2023-03-06T01:09:48.406Z,20.96
2023-03-06T01:10:48.415Z,20.96
2023-03-06T01:11:48.442Z,20.96
2023-03-06T01:12:48.440Z,20.96
2023-03-06T01:13:48.459Z,20.96
2023-03-06T01:14:48.479Z,20.96
2023-03-06T01:15:48.484Z,20.96
2023-03-06T01:16:48.498Z,20.97
2023-03-06T01:17:48.505Z,20.96
2023-03-06T01:18:48.516Z,20.97
2023-03-06T01:19:48.534Z,20.98
2023-03-06T01:20:48.539Z,20.98
2023-03-06T01:21:48.549Z,20.98
2023-03-06T01:22:48.549Z,20.98
2023-03-06T01:23:48.563Z,20.98
2023-03-06T01:24:48.570Z,21.00
2023-03-06T01:25:48.589Z,21.00
2023-03-06T01:26:48.578Z,21.01
2023-03-06T01:27:48.596Z,21.01
2023-03-06T01:28:48.682Z,21.02
2023-03-06T01:29:48.609Z,21.02
2023-03-06T01:30:48.609Z,21.03
2023-03-06T01:31:48.696Z,21.03
2023-03-06T01:32:48.635Z,21.04
2023-03-06T01:33:48.636Z,21.05
2023-03-06T01:34:48.633Z,21.06
2023-03-06T01:35:48.702Z,21.06
2023-03-06T01:36:48.646Z,21.07
2023-03-06T01:37:48.678Z,21.07
2023-03-06T01:38:48.652Z,21.08
2023-03-06T01:43:48.679Z,21.11
2023-03-06T01:44:48.673Z,21.12
2023-03-06T01:45:48.678Z,21.12
2023-03-06T01:46:48.734Z,21.12
2023-03-06T01:47:48.664Z,21.13
2023-03-06T01:48:48.690Z,21.13
2023-03-06T01:49:48.668Z,21.13
2023-03-06T01:50:48.732Z,21.13
2023-03-06T01:51:48.694Z,21.14
2023-03-06T01:52:48.668Z,21.13
2023-03-06T01:53:49.274Z,21.13
2023-03-06T01:54:49.291Z,21.13
2023-03-06T01:55:48.658Z,21.14
2023-03-06T01:56:48.657Z,21.14
2023-03-06T01:57:48.657Z,21.14
2023-03-06T01:58:48.649Z,21.14
2023-03-06T01:59:48.667Z,21.14
2023-03-06T02:00:48.739Z,21.14
2023-03-06T02:01:48.654Z,21.14
2023-03-06T02:02:48.678Z,21.14
2023-03-06T02:03:48.714Z,21.14
2023-03-06T02:04:48.669Z,21.14
2023-03-06T02:05:48.670Z,21.14
2023-03-06T02:06:48.790Z,21.14
2023-03-06T02:07:48.633Z,21.15
2023-03-06T02:08:48.636Z,21.15
2023-03-06T02:09:48.645Z,21.15
2023-03-06T02:17:48.602Z,21.15
2023-03-06T02:18:48.589Z,21.15
2023-03-06T02:19:48.595Z,21.15
2023-03-06T02:20:48.605Z,21.15
2023-03-06T02:22:48.612Z,21.15
2023-03-06T02:23:48.565Z,21.15
2023-03-06T02:24:48.576Z,21.15
2023-03-06T02:25:48.576Z,21.14
2023-03-06T02:26:48.575Z,21.15
2023-03-06T02:27:48.582Z,21.14
2023-03-06T02:28:48.558Z,21.14
2023-03-06T02:29:48.557Z,21.14
2023-03-06T02:30:48.647Z,21.14
2023-03-06T02:32:48.548Z,21.14
2023-03-06T02:33:48.543Z,21.14
2023-03-06T02:34:48.546Z,21.15
2023-03-06T02:35:48.572Z,21.14
2023-03-06T02:36:48.549Z,21.15
2023-03-06T02:48:48.494Z,21.12
2023-03-06T02:49:48.495Z,21.12
2023-03-06T02:50:48.499Z,21.12
2023-03-06T02:51:48.500Z,21.12
2023-03-06T02:52:48.497Z,21.12
2023-03-06T02:53:48.502Z,21.11
2023-03-06T02:54:48.496Z,21.11
2023-03-06T02:55:48.508Z,21.12
2023-03-06T02:56:48.497Z,21.11
2023-03-06T02:57:48.505Z,21.12
2023-03-06T02:58:48.527Z,21.11
2023-03-06T02:59:48.524Z,21.11
2023-03-06T03:00:48.511Z,21.11
2023-03-06T03:01:48.631Z,21.11
2023-03-06T03:02:48.516Z,21.10
2023-03-06T03:03:48.528Z,21.10
2023-03-06T03:04:48.592Z,21.11
2023-03-06T03:05:48.525Z,21.10
2023-03-06T03:06:48.523Z,21.10
2023-03-06T03:07:48.552Z,21.10
2023-03-06T03:08:48.531Z,21.10
2023-03-06T03:09:48.534Z,21.11
2023-03-06T03:10:48.525Z,21.10
2023-03-06T03:11:48.531Z,21.10
2023-03-06T03:12:48.532Z,21.10
2023-03-06T03:13:48.545Z,21.10
2023-03-06T03:14:48.533Z,21.09
2023-03-06T03:15:48.563Z,21.10
2023-03-06T03:16:48.536Z,21.10
2023-03-06T03:17:48.542Z,21.10
2023-03-06T03:18:48.542Z,21.10
2023-03-06T03:19:48.556Z,21.10
2023-03-06T03:20:48.553Z,21.11
2023-03-06T03:21:48.558Z,21.10
2023-03-06T03:22:48.581Z,21.10
2023-03-06T03:23:48.568Z,21.10
2023-03-06T03:24:48.584Z,21.10
2023-03-06T03:25:49.320Z,21.10
2023-03-06T03:26:48.580Z,21.10
2023-03-06T03:27:48.575Z,21.11
2023-03-06T03:28:48.591Z,21.10
2023-03-06T03:29:48.574Z,21.10
2023-03-06T03:30:48.614Z,21.10
2023-03-06T03:31:48.574Z,21.10
2023-03-06T03:32:48.578Z,21.10
2023-03-06T03:33:48.566Z,21.09
2023-03-06T03:34:48.565Z,21.09
2023-03-06T03:35:48.622Z,21.10
2023-03-06T03:36:48.580Z,21.10
2023-03-06T03:37:48.577Z,21.10
2023-03-06T03:38:48.597Z,21.10
2023-03-06T03:39:48.585Z,21.09
2023-03-06T03:40:48.608Z,21.10
2023-03-06T03:41:48.606Z,21.09
2023-03-06T03:42:48.604Z,21.09
2023-03-06T03:43:48.619Z,21.09
2023-03-06T03:44:48.682Z,21.09
2023-03-06T03:45:48.627Z,21.09
2023-03-06T03:46:48.685Z,21.10
2023-03-06T03:47:48.719Z,21.09
2023-03-06T03:48:48.643Z,21.10
2023-03-06T03:49:48.707Z,21.09
2023-03-06T03:50:48.637Z,21.09
2023-03-06T03:51:48.646Z,21.09
2023-03-06T03:52:48.661Z,21.09
2023-03-06T03:53:48.648Z,21.09
2023-03-06T03:54:48.659Z,21.09
2023-03-06T03:55:49.322Z,21.08
2023-03-06T03:57:48.669Z,21.08
2023-03-06T04:15:48.689Z,21.07
2023-03-06T04:16:48.706Z,21.08
2023-03-06T04:17:48.713Z,21.08
2023-03-06T04:18:48.706Z,21.08
2023-03-06T04:19:48.711Z,21.07
2023-03-06T04:35:48.784Z,21.07
2023-03-06T04:42:48.737Z,21.06
2023-03-06T04:43:48.747Z,21.07
2023-03-06T04:45:48.797Z,21.06
2023-03-06T04:46:48.746Z,21.06
2023-03-06T04:47:48.748Z,21.07
2023-03-06T04:48:48.760Z,21.06
2023-03-06T04:49:48.764Z,21.06
2023-03-06T04:50:48.763Z,21.06
2023-03-06T04:51:48.792Z,21.06
2023-03-06T04:52:48.770Z,21.06
2023-03-06T04:53:48.761Z,21.05
2023-03-06T04:54:48.766Z,21.06
2023-03-06T04:55:48.757Z,21.06
2023-03-06T04:56:48.759Z,21.06
2023-03-06T04:57:48.771Z,21.05
2023-03-06T04:58:48.773Z,21.06
2023-03-06T04:59:48.775Z,21.06
2023-03-06T05:00:48.818Z,21.04
2023-03-06T05:01:48.910Z,21.05
2023-03-06T05:02:48.799Z,21.04
2023-03-06T05:03:48.800Z,21.05
2023-03-06T05:04:48.812Z,21.05
2023-03-06T05:05:48.807Z,21.04
2023-03-06T05:06:48.802Z,21.04
2023-03-06T05:07:48.809Z,21.04
2023-03-06T05:08:48.812Z,21.04
2023-03-06T05:09:48.818Z,21.04
2023-03-06T05:10:48.828Z,21.04
2023-03-06T05:11:48.832Z,21.04
2023-03-06T05:12:48.829Z,21.04
2023-03-06T05:13:48.836Z,21.04
2023-03-06T05:14:48.838Z,21.04
2023-03-06T05:15:48.849Z,21.04
2023-03-06T05:16:48.881Z,21.04
2023-03-06T05:17:48.858Z,21.03
2023-03-06T05:18:50.582Z,21.03
2023-03-06T05:19:48.857Z,21.03
2023-03-06T05:20:48.855Z,21.03
2023-03-06T05:21:48.869Z,21.02
2023-03-06T05:22:48.867Z,21.03
2023-03-06T05:23:48.942Z,21.02
2023-03-06T05:24:48.877Z,21.03
2023-03-06T05:25:48.883Z,21.03
2023-03-06T05:26:48.895Z,21.03
2023-03-06T05:27:48.889Z,21.02
2023-03-06T05:28:48.892Z,21.02
2023-03-06T05:29:48.898Z,21.02
2023-03-06T05:30:48.907Z,21.02
2023-03-06T05:31:48.958Z,21.02
2023-03-06T05:32:48.987Z,21.02
2023-03-06T05:33:48.934Z,21.02
2023-03-06T05:34:48.934Z,21.02
2023-03-06T05:35:48.991Z,21.02
2023-03-06T05:36:48.953Z,21.02
2023-03-06T05:37:48.967Z,21.02
2023-03-06T05:38:48.974Z,21.02
2023-03-06T05:39:48.976Z,21.02
2023-03-06T05:40:48.992Z,21.02
2023-03-06T05:41:49.010Z,21.02
2023-03-06T05:42:49.013Z,21.02
2023-03-06T05:43:49.002Z,21.01
2023-03-06T05:44:49.028Z,21.02
2023-03-06T05:45:49.102Z,21.01
2023-03-06T05:46:49.015Z,21.01
2023-03-06T05:47:49.024Z,21.01
2023-03-06T05:48:49.033Z,21.01
2023-03-06T05:49:49.037Z,21.01
2023-03-06T05:50:49.036Z,21.01
2023-03-06T05:51:49.045Z,21.01
2023-03-06T05:52:49.062Z,21.01
2023-03-06T05:53:49.073Z,21.01
2023-03-06T05:54:49.080Z,21.01
2023-03-06T05:55:49.079Z,21.02
2023-03-06T05:56:49.089Z,21.01
2023-03-06T05:57:49.097Z,21.01
2023-03-06T05:58:49.101Z,21.00
2023-03-06T05:59:49.102Z,21.02
2023-03-06T06:00:49.107Z,21.01
2023-03-06T06:01:49.104Z,21.02
2023-03-06T06:02:49.119Z,21.01
2023-03-06T06:03:49.179Z,21.00
2023-03-06T06:04:49.136Z,21.01
2023-03-06T06:05:49.371Z,21.00
2023-03-06T06:06:49.141Z,21.01
2023-03-06T06:07:49.152Z,21.01
2023-03-06T06:08:49.157Z,21.01
2023-03-06T06:09:49.174Z,21.00
2023-03-06T06:10:51.015Z,21.02
2023-03-06T06:11:49.144Z,21.01
2023-03-06T06:12:49.116Z,21.00
2023-03-06T06:13:49.085Z,21.01
2023-03-06T06:14:49.042Z,21.01
2023-03-06T06:15:49.063Z,21.00
2023-03-06T06:16:48.981Z,21.00
2023-03-06T06:17:48.948Z,21.00
2023-03-06T06:18:48.913Z,21.00
2023-03-06T06:19:48.881Z,20.99
2023-03-06T06:20:48.874Z,21.00
2023-03-06T06:21:48.886Z,21.00
2023-03-06T06:22:48.791Z,21.01
2023-03-06T06:23:48.762Z,21.00
2023-03-06T06:24:48.872Z,21.00
2023-03-06T06:25:48.694Z,21.00
2023-03-06T06:26:48.656Z,21.00
2023-03-06T06:27:48.622Z,20.99
2023-03-06T06:28:48.589Z,20.99
2023-03-06T06:29:48.564Z,20.98
2023-03-06T06:30:48.555Z,20.97
2023-03-06T06:31:48.495Z,20.97
2023-03-06T06:32:48.464Z,20.97
2023-03-06T06:33:48.434Z,20.97
2023-03-06T06:34:48.411Z,20.97
2023-03-06T06:35:48.428Z,20.98
2023-03-06T06:42:02.374Z,20.98
2023-03-06T06:43:48.103Z,20.99
2023-03-06T06:47:48.043Z,21.00
2023-03-06T06:49:47.907Z,21.00
2023-03-06T06:50:47.874Z,21.00
2023-03-06T06:51:47.849Z,21.00
2023-03-06T06:52:47.824Z,21.01
2023-03-06T06:53:47.782Z,21.00
2023-03-06T06:54:47.754Z,21.01
2023-03-06T06:55:47.884Z,21.01
2023-03-06T07:08:47.890Z,21.01
2023-03-06T09:41:46.122Z,22.51
2023-03-06T09:42:46.101Z,22.54
2023-03-06T09:43:46.083Z,22.58
2023-03-06T09:44:46.040Z,22.61
2023-03-06T09:45:46.025Z,22.63
2023-03-06T09:46:46.013Z,22.67
2023-03-06T09:47:46.451Z,22.70
2023-03-06T09:48:45.869Z,22.73
2023-03-06T09:49:45.829Z,22.75
2023-03-06T09:50:45.806Z,22.77
2023-03-06T09:51:46.757Z,22.79
2023-03-06T09:52:45.717Z,22.80
2023-03-06T09:53:45.675Z,22.82
2023-03-06T09:54:45.618Z,22.85
2023-03-06T09:55:45.574Z,22.87
2023-03-06T09:56:45.528Z,22.89
2023-03-06T09:57:45.484Z,22.91
2023-03-06T09:58:45.429Z,22.94
2023-03-06T09:59:45.391Z,22.96
2023-03-06T10:00:45.387Z,22.98
2023-03-06T10:01:45.311Z,23.00
2023-03-06T10:02:45.341Z,23.03
2023-03-06T10:03:45.297Z,23.04
2023-03-06T10:04:45.207Z,23.07
2023-03-06T10:05:45.131Z,23.09
2023-03-06T10:06:45.117Z,23.10
2023-03-06T10:07:45.107Z,23.13
2023-03-06T10:08:45.095Z,23.16
2023-03-06T10:09:45.063Z,23.17
2023-03-06T10:10:45.067Z,23.19
2023-03-06T10:11:45.080Z,23.21
2023-03-06T10:12:45.144Z,23.22
2023-03-06T10:13:45.103Z,23.25
2023-03-06T10:14:48.457Z,23.26
2023-03-06T10:15:45.084Z,23.27
2023-03-06T10:16:45.949Z,23.23
2023-03-06T10:17:44.984Z,23.24
2023-03-06T10:18:44.935Z,23.23
2023-03-06T10:19:45.463Z,23.22
2023-03-06T10:20:44.864Z,23.21
2023-03-06T10:21:45.785Z,23.17
2023-03-06T10:22:48.064Z,23.14
2023-03-06T10:23:46.374Z,23.09
2023-03-06T10:24:44.678Z,23.06
2023-03-06T10:25:44.604Z,23.03
2023-03-06T10:26:44.666Z,22.98
2023-03-06T10:27:44.509Z,22.93
2023-03-06T10:28:45.377Z,22.89
2023-03-06T10:29:56.355Z,22.86
2023-03-06T10:30:45.418Z,22.83
2023-03-06T10:31:44.325Z,22.81
2023-03-06T10:32:48.696Z,22.80
2023-03-06T10:33:45.888Z,22.78
2023-03-06T10:34:44.296Z,22.74
2023-03-06T10:35:44.171Z,22.73
2023-03-06T10:36:44.082Z,22.72
2023-03-06T10:37:44.884Z,22.70
2023-03-06T10:38:44.959Z,22.69
2023-03-06T10:39:43.947Z,22.68
2023-03-06T10:40:43.905Z,22.68
2023-03-06T10:41:45.331Z,22.68
2023-03-06T10:42:43.792Z,22.66
2023-03-06T10:43:43.748Z,22.65
2023-03-06T10:44:43.697Z,22.65
2023-03-06T10:45:48.988Z,22.64
2023-03-06T10:46:44.647Z,22.64
2023-03-06T10:47:43.553Z,22.65
2023-03-06T10:48:43.510Z,22.66
2023-03-06T10:49:43.464Z,22.67
2023-03-06T10:50:43.418Z,22.67
2023-03-06T10:51:43.368Z,22.68
2023-03-06T10:52:43.325Z,22.70
2023-03-06T11:06:43.468Z,22.84
2023-03-06T11:56:40.800Z,23.57
2023-03-06T11:57:40.864Z,23.54
2023-03-06T11:58:40.836Z,23.58
2023-03-06T11:59:40.838Z,23.56
2023-03-06T12:00:40.857Z,23.52
2023-03-06T12:01:40.905Z,23.57
2023-03-06T12:02:41.489Z,23.60
2023-03-06T12:03:40.889Z,23.62
2023-03-06T12:04:40.891Z,23.59
2023-03-06T12:05:40.974Z,23.54
2023-03-06T12:06:40.903Z,23.55
2023-03-06T12:07:40.917Z,23.58
2023-03-06T12:08:40.912Z,23.60
2023-03-06T12:09:41.498Z,23.56
2023-03-06T12:10:40.939Z,23.56
2023-03-06T12:11:41.056Z,23.51
2023-03-06T12:12:41.036Z,23.46
2023-03-06T12:13:40.968Z,23.46
2023-03-06T12:14:40.989Z,23.50
2023-03-06T12:15:41.009Z,23.52
2023-03-06T12:16:41.093Z,23.54
2023-03-06T12:17:41.022Z,23.56
2023-03-06T12:18:41.027Z,23.57
2023-03-06T12:19:41.036Z,23.57
2023-03-06T12:20:41.046Z,23.54
2023-03-06T12:21:41.071Z,23.50
2023-03-06T12:22:41.070Z,23.54
2023-03-06T12:23:41.049Z,23.50
2023-03-06T12:24:41.148Z,23.50
2023-03-06T12:25:41.079Z,23.47
2023-03-06T12:26:41.094Z,23.45
2023-03-06T12:27:41.099Z,23.44
2023-03-06T12:28:41.114Z,23.46
2023-03-06T12:29:41.130Z,23.50
2023-03-06T12:30:41.144Z,23.52
2023-03-06T12:31:41.172Z,23.55
2023-03-06T12:32:41.169Z,23.55
2023-03-06T12:33:41.177Z,23.50
2023-03-06T12:34:41.512Z,23.49
2023-03-06T12:35:41.234Z,23.50
2023-03-06T12:36:41.238Z,23.47
2023-03-06T12:37:41.221Z,23.44
2023-03-06T12:38:41.241Z,23.44
2023-03-06T12:39:41.422Z,23.50
2023-03-06T12:40:41.401Z,23.50
2023-03-06T12:41:41.334Z,23.44
2023-03-06T12:42:41.271Z,23.41
2023-03-06T12:43:41.277Z,23.40
2023-03-06T12:44:41.299Z,23.38
2023-03-06T12:45:41.355Z,23.39
2023-03-06T12:46:41.473Z,23.40
2023-03-06T12:47:41.301Z,23.39
2023-03-06T12:48:41.316Z,23.36
2023-03-06T12:49:41.309Z,23.33
2023-03-06T12:50:42.017Z,23.34
2023-03-06T12:51:41.400Z,23.39
2023-03-06T12:52:41.360Z,23.38
2023-03-06T12:53:41.405Z,23.34
2023-03-06T12:54:41.362Z,23.31
2023-03-06T12:55:41.376Z,23.30
2023-03-06T12:56:41.439Z,23.29
2023-03-06T12:57:41.370Z,23.28
2023-03-06T12:58:41.355Z,23.30
2023-03-06T12:59:41.362Z,23.35
2023-03-06T13:00:41.352Z,23.31
2023-03-06T13:01:41.362Z,23.28
2023-03-06T13:02:41.349Z,23.24
2023-03-06T13:03:41.294Z,23.22
2023-03-06T13:04:41.269Z,23.21
2023-03-06T13:05:41.333Z,23.19
2023-03-06T13:06:49.772Z,23.18
2023-03-06T13:07:42.145Z,23.17
2023-03-06T13:08:42.666Z,23.16
2023-03-06T13:09:41.041Z,23.19
2023-03-06T13:10:41.002Z,23.19
2023-03-06T13:11:40.928Z,23.17
2023-03-06T13:12:40.882Z,23.14
2023-03-06T13:13:40.826Z,23.11
2023-03-06T13:14:48.710Z,23.09
2023-03-06T13:15:41.720Z,23.07
2023-03-06T13:16:40.704Z,23.06
2023-03-06T13:17:40.609Z,23.08
2023-03-06T13:18:40.563Z,23.12
2023-03-06T13:19:40.512Z,23.13
2023-03-06T13:20:40.461Z,23.08
2023-03-06T13:21:41.062Z,23.06
2023-03-06T13:22:40.364Z,23.04
2023-03-06T13:23:40.893Z,23.02
2023-03-06T13:24:40.268Z,23.01
2023-03-06T13:25:40.280Z,23.00
2023-03-06T13:26:40.153Z,23.00
2023-03-06T13:27:40.110Z,22.98
2023-03-06T13:28:40.059Z,22.97
2023-03-06T13:29:40.007Z,22.95
2023-03-06T13:30:39.985Z,22.94
2023-03-06T13:31:40.001Z,22.94
2023-03-06T13:32:39.893Z,22.94
2023-03-06T13:33:39.806Z,22.92
2023-03-06T13:34:39.772Z,22.90
2023-03-06T13:35:39.756Z,22.89
2023-03-06T13:36:39.957Z,22.86
2023-03-06T13:37:39.622Z,22.86
2023-03-06T13:38:39.584Z,22.85
2023-03-06T13:39:39.535Z,22.84
2023-03-06T13:40:39.483Z,22.84
2023-03-06T13:41:39.446Z,22.83
2023-03-06T13:42:39.375Z,22.83
2023-03-06T13:43:39.329Z,22.81
2023-03-06T13:44:39.334Z,22.79
2023-03-06T13:45:39.298Z,22.77
2023-03-06T13:46:39.208Z,22.77
2023-03-06T13:48:02.865Z,22.76
2023-03-06T13:48:45.466Z,22.75
2023-03-06T13:49:40.070Z,22.73
2023-03-06T13:50:39.022Z,22.73
2023-03-06T13:51:38.969Z,22.70
2023-03-06T13:52:38.946Z,22.69
2023-03-06T13:53:38.903Z,22.67
2023-03-06T13:54:38.844Z,22.66
2023-03-06T13:55:38.805Z,22.65
2023-03-06T13:56:38.819Z,22.65
2023-03-06T13:57:38.709Z,22.65
2023-03-06T13:58:38.668Z,22.64
2023-03-06T13:59:38.632Z,22.63
2023-03-06T14:00:38.586Z,22.63
2023-03-06T14:01:38.663Z,22.63
2023-03-06T14:02:38.519Z,22.68
2023-03-06T14:03:38.437Z,22.69
2023-03-06T14:04:38.386Z,22.66
2023-03-06T14:05:38.535Z,22.64
2023-03-06T14:06:38.290Z,22.62
2023-03-06T14:07:38.244Z,22.60
2023-03-06T14:08:38.198Z,22.60
2023-03-06T14:10:38.102Z,22.58
2023-03-06T14:15:37.940Z,22.52
2023-03-06T14:16:49.439Z,22.64
2023-03-06T14:17:38.784Z,22.66
2023-03-06T14:19:37.691Z,22.76
2023-03-06T14:20:37.644Z,22.74
2023-03-06T14:21:37.598Z,22.69
2023-03-06T14:22:37.557Z,22.66
2023-03-06T14:23:37.514Z,22.63
2023-03-06T17:53:35.943Z,21.34
2023-03-06T17:54:35.990Z,21.33
2023-03-06T17:55:35.935Z,21.34
2023-03-06T17:56:35.908Z,21.34
2023-03-06T17:57:35.954Z,21.33
2023-03-06T17:58:35.885Z,21.32
2023-03-06T17:59:35.864Z,21.32
2023-03-06T18:00:35.858Z,21.32
2023-03-06T18:01:35.901Z,21.31
2023-03-06T18:03:38.210Z,21.31
2023-03-06T18:04:35.771Z,21.30
2023-03-06T18:05:35.724Z,21.30
2023-03-06T18:06:35.689Z,21.30
2023-03-06T18:07:35.635Z,21.30
2023-03-06T18:08:35.622Z,21.29
2023-03-06T18:09:35.568Z,21.29
2023-03-06T18:10:35.532Z,21.29
2023-03-06T18:11:35.510Z,21.28
2023-03-06T18:12:35.466Z,21.28
2023-03-06T18:13:35.421Z,21.28
2023-03-06T18:14:35.386Z,21.28
2023-03-06T18:15:35.334Z,21.28
2023-03-06T18:16:35.679Z,21.27
2023-03-06T18:17:35.308Z,21.26
2023-03-06T18:18:35.211Z,21.26
2023-03-06T18:19:35.183Z,21.25
2023-03-06T18:20:35.157Z,21.25
2023-03-06T18:21:35.105Z,21.24
2023-03-06T18:22:35.067Z,21.24
2023-03-06T18:23:35.028Z,21.24
2023-03-06T18:24:35.050Z,21.24
2023-03-06T18:25:35.016Z,21.24
2023-03-06T18:26:34.937Z,21.23
2023-03-06T18:27:34.887Z,21.23
2023-03-06T18:28:34.849Z,21.23
2023-03-06T18:29:34.817Z,21.22
2023-03-06T18:30:34.766Z,21.23
2023-03-06T18:31:35.017Z,21.23
2023-03-06T18:32:34.712Z,21.22
2023-03-06T18:33:34.664Z,21.21
2023-03-06T18:34:34.610Z,21.21
2023-03-06T18:35:34.608Z,21.21
2023-03-06T18:36:34.552Z,21.21
2023-03-06T18:37:34.511Z,21.21
2023-03-06T18:38:34.473Z,21.21
2023-03-06T18:39:34.438Z,21.20
2023-03-06T18:40:34.404Z,21.20
2023-03-06T18:41:34.458Z,21.20
2023-03-06T18:42:34.332Z,21.20
2023-03-06T18:43:34.296Z,21.19
2023-03-06T18:44:34.261Z,21.19
2023-03-06T18:45:34.255Z,21.19
2023-03-06T18:46:34.205Z,21.18
2023-03-06T18:47:34.161Z,21.18
2023-03-06T18:48:34.139Z,21.18
2023-03-06T18:49:34.104Z,21.17
2023-03-06T18:50:34.064Z,21.17
2023-03-06T18:51:34.034Z,21.16
2023-03-06T18:52:34.002Z,21.16
2023-03-06T18:53:33.983Z,21.16
2023-03-06T18:54:33.925Z,21.16
2023-03-06T18:55:33.889Z,21.15
2023-03-06T18:56:33.848Z,21.15
2023-03-06T18:57:33.836Z,21.15
2023-03-06T18:58:33.804Z,21.15
2023-03-06T18:59:33.752Z,21.14
2023-03-06T19:00:33.710Z,21.15
2023-03-06T19:01:33.741Z,21.14
2023-03-06T19:02:33.648Z,21.14
2023-03-06T19:03:33.636Z,21.14
2023-03-06T19:04:33.595Z,21.13
2023-03-06T19:05:33.541Z,21.13
2023-03-06T19:06:33.514Z,21.12
2023-03-06T19:07:33.465Z,21.13
2023-03-06T19:08:33.439Z,21.12
2023-03-06T19:09:33.400Z,21.13
2023-03-06T19:10:33.378Z,21.12
2023-03-06T19:11:33.337Z,21.12
2023-03-06T19:12:33.292Z,21.12
2023-03-06T19:31:33.671Z,21.08
2023-03-06T19:46:33.401Z,21.05
2023-03-06T19:49:33.298Z,21.04
2023-03-06T19:50:33.309Z,21.04
2023-03-06T19:51:33.400Z,21.04
2023-03-06T19:52:33.323Z,21.04
2023-03-06T19:53:33.431Z,21.04
2023-03-06T19:54:33.402Z,21.02
2023-03-06T19:55:33.344Z,21.03
2023-03-06T19:56:33.380Z,21.03
2023-03-06T19:57:33.369Z,21.02
2023-03-06T19:58:33.393Z,21.02
2023-03-06T19:59:33.394Z,21.03
2023-03-06T20:00:33.477Z,21.02
2023-03-06T20:01:33.433Z,21.02
2023-03-06T20:02:33.423Z,21.02
2023-03-06T20:03:34.214Z,21.02
2023-03-06T20:04:33.505Z,21.01
2023-03-06T20:05:33.456Z,21.01
2023-03-06T20:06:33.545Z,21.02
2023-03-06T20:10:33.576Z,21.01
2023-03-06T20:11:33.521Z,21.00
2023-03-06T20:12:33.535Z,21.00
2023-03-06T20:13:33.556Z,21.00
2023-03-06T20:14:33.590Z,21.00
2023-03-06T20:15:33.607Z,21.00
2023-03-06T20:16:33.668Z,21.00
2023-03-06T20:17:33.612Z,21.00
2023-03-06T20:18:33.630Z,21.00
2023-03-06T20:19:33.643Z,20.99
2023-03-06T20:20:33.670Z,20.99
2023-03-06T20:21:33.689Z,20.98
2023-03-06T20:22:33.696Z,20.97
2023-03-06T20:23:33.736Z,20.98
2023-03-06T20:24:33.734Z,20.98
2023-03-06T20:25:33.746Z,20.98
2023-03-06T20:26:33.759Z,20.98
2023-03-06T20:27:33.769Z,20.98
2023-03-06T20:28:33.789Z,20.98
2023-03-06T20:29:33.813Z,20.98
2023-03-06T20:30:38.114Z,20.97
2023-03-06T20:31:33.810Z,20.97
2023-03-06T20:32:33.760Z,20.97
2023-03-06T20:36:33.598Z,20.96
2023-03-06T20:38:33.517Z,20.96
2023-03-06T20:39:33.483Z,20.96
2023-03-06T20:40:33.602Z,20.95
2023-03-06T20:41:33.410Z,20.95
2023-03-06T20:42:33.378Z,20.94
2023-03-06T20:43:33.332Z,20.94
2023-03-06T20:44:33.297Z,20.95
2023-03-06T20:45:33.316Z,20.94
2023-03-06T20:50:33.287Z,20.94
2023-03-06T20:51:33.307Z,20.92
2023-03-06T20:52:33.330Z,20.93
2023-03-06T20:53:33.358Z,20.93
2023-03-06T20:54:33.377Z,20.92
2023-03-06T20:55:33.417Z,20.92
2023-03-06T20:56:33.427Z,20.92
2023-03-06T20:57:33.461Z,20.92
2023-03-06T20:58:33.482Z,20.91
2023-03-06T20:59:33.503Z,20.91
2023-03-06T21:00:33.523Z,20.92
2023-03-06T21:01:33.632Z,20.92
2023-03-06T21:02:33.584Z,20.91
2023-03-06T21:03:33.595Z,20.90
2023-03-06T21:04:33.646Z,20.91
2023-03-06T21:05:33.649Z,20.92
2023-03-06T21:06:33.667Z,20.90
2023-03-06T21:07:33.697Z,20.91
2023-03-06T21:08:33.719Z,20.90
2023-03-06T21:09:33.789Z,20.90
2023-03-06T21:10:33.756Z,20.90
2023-03-06T21:11:33.779Z,20.90
2023-03-06T21:12:33.812Z,20.90
2023-03-06T21:13:33.851Z,20.90
2023-03-06T21:14:33.884Z,20.89
2023-03-06T21:15:33.893Z,20.89
2023-03-06T21:16:34.005Z,20.89
2023-03-06T21:17:33.953Z,20.89
2023-03-06T21:18:33.984Z,20.88
2023-03-06T21:19:34.019Z,20.89
2023-03-06T21:20:34.692Z,20.89
2023-03-06T21:21:34.068Z,20.89
2023-03-06T21:22:34.091Z,20.88
2023-03-06T21:23:34.124Z,20.88
2023-03-06T21:24:34.136Z,20.88
2023-03-06T21:25:34.175Z,20.88
2023-03-06T21:26:34.217Z,20.88
2023-03-06T21:27:34.228Z,20.88
2023-03-06T21:28:34.266Z,20.88
2023-03-06T21:29:34.290Z,20.88
2023-03-06T21:30:34.313Z,20.87
2023-03-06T21:31:34.542Z,20.88
2023-03-06T21:32:34.452Z,20.87
2023-03-06T21:33:34.389Z,20.86
2023-03-06T21:34:34.420Z,20.86
2023-03-06T21:35:34.463Z,20.86
2023-03-06T21:36:35.194Z,20.86
2023-03-06T21:37:34.503Z,20.87
2023-03-06T21:48:34.754Z,20.85
2023-03-06T22:03:35.141Z,20.82
2023-03-06T22:04:35.234Z,20.82
2023-03-06T22:05:35.204Z,20.81
2023-03-06T22:06:35.299Z,20.82
2023-03-06T22:07:35.249Z,20.81
2023-03-06T22:08:35.289Z,20.81
2023-03-06T22:09:35.314Z,20.81
2023-03-06T22:10:35.357Z,20.81
2023-03-06T22:11:35.362Z,20.81
2023-03-06T22:12:35.440Z,20.80
2023-03-06T22:13:35.405Z,20.80
2023-03-06T22:14:35.447Z,20.80
2023-03-06T22:15:35.478Z,20.80
2023-03-06T22:16:35.564Z,20.80
2023-03-06T22:17:35.533Z,20.79
2023-03-06T22:18:35.572Z,20.79
2023-03-06T22:19:35.652Z,20.79
2023-03-06T22:20:35.702Z,20.79
2023-03-06T22:21:35.650Z,20.79
2023-03-06T22:22:35.675Z,20.79
2023-03-06T22:23:36.234Z,20.79
2023-03-06T22:24:35.734Z,20.79
2023-03-06T22:25:35.766Z,20.79
2023-03-06T22:26:35.795Z,20.79
2023-03-06T22:27:35.849Z,20.79
2023-03-06T22:28:35.856Z,20.79
2023-03-06T22:29:35.887Z,20.78
2023-03-06T22:30:35.923Z,20.78
2023-03-06T22:31:35.967Z,20.78
2023-03-06T22:32:36.005Z,20.78
2023-03-06T22:33:36.016Z,20.78
2023-03-06T22:34:36.034Z,20.78
2023-03-06T22:35:36.091Z,20.78
2023-03-06T22:36:36.110Z,20.77
2023-03-06T22:37:36.133Z,20.77
2023-03-06T22:38:36.159Z,20.78
2023-03-06T22:39:36.187Z,20.77